createdAt,value
2022-08-14T00:00:56.717Z,18.58
2022-08-14T00:01:56.723Z,18.49
2022-08-14T00:02:56.730Z,18.41
2022-08-14T00:03:56.696Z,18.55
2022-08-14T00:04:56.684Z,18.40
2022-08-14T00:05:59.976Z,18.49
2022-08-14T00:06:56.671Z,18.49
2022-08-14T00:07:56.701Z,18.47
2022-08-14T00:08:59.121Z,18.45
2022-08-14T00:10:50.475Z,18.43
2022-08-14T00:10:58.642Z,18.55
2022-08-14T00:11:56.642Z,18.56
2022-08-14T00:12:57.316Z,18.59
2022-08-14T00:13:56.619Z,18.63
2022-08-14T00:14:56.614Z,18.59
2022-08-14T00:15:56.612Z,18.58
2022-08-14T00:16:56.619Z,18.55
2022-08-14T00:17:56.627Z,18.60
2022-08-14T00:19:06.604Z,18.63
2022-08-14T00:19:57.578Z,18.43
2022-08-14T00:20:56.577Z,18.49
2022-08-14T00:21:56.558Z,18.52
2022-08-14T00:22:58.409Z,18.52
2022-08-14T00:23:56.578Z,18.43
2022-08-14T00:24:57.540Z,18.41
2022-08-14T00:26:06.180Z,18.23
2022-08-14T00:26:57.526Z,18.19
2022-08-14T00:27:56.551Z,18.15
2022-08-14T00:28:56.511Z,18.16
2022-08-14T00:29:56.501Z,18.13
2022-08-14T00:30:56.490Z,18.13
2022-08-14T00:31:56.822Z,18.15
2022-08-14T00:32:56.777Z,18.07
2022-08-14T00:33:59.034Z,18.03
2022-08-14T00:34:57.462Z,17.92
2022-08-14T00:36:35.083Z,17.85
2022-08-14T00:36:59.254Z,17.82
2022-08-14T00:37:56.442Z,17.83
2022-08-14T00:38:56.463Z,17.76
2022-08-14T00:39:56.506Z,17.76
2022-08-14T00:40:56.416Z,17.82
2022-08-14T00:41:56.412Z,17.83
2022-08-14T00:42:56.636Z,17.74
2022-08-14T00:43:57.436Z,17.74
2022-08-14T00:44:56.387Z,17.64
2022-08-14T00:45:56.381Z,17.67
2022-08-14T00:46:58.823Z,17.56
2022-08-14T00:47:56.367Z,17.51
2022-08-14T00:48:57.104Z,17.46
2022-08-14T00:49:56.356Z,17.59
2022-08-14T00:50:56.329Z,17.54
2022-08-14T00:51:57.331Z,17.64
2022-08-14T00:52:57.327Z,17.56
2022-08-14T00:53:56.344Z,17.60
2022-08-14T00:54:58.004Z,17.56
2022-08-14T00:55:56.302Z,17.60
2022-08-14T00:56:56.288Z,17.64
2022-08-14T00:57:56.281Z,17.59
2022-08-14T00:58:56.326Z,17.56
2022-08-14T00:59:56.273Z,17.44
2022-08-14T01:00:57.847Z,17.38
2022-08-14T01:01:56.357Z,17.45
2022-08-14T01:02:56.250Z,17.46
2022-08-14T01:03:56.282Z,17.48
2022-08-14T01:04:56.232Z,17.48
2022-08-14T01:05:56.229Z,17.48
2022-08-14T01:06:56.219Z,17.44
2022-08-14T01:07:57.069Z,17.48
2022-08-14T01:08:59.138Z,17.39
2022-08-14T01:09:56.197Z,17.41
2022-08-14T01:10:56.188Z,17.41
2022-08-14T01:11:57.321Z,17.34
2022-08-14T01:12:57.177Z,17.22
2022-08-14T01:14:00.880Z,17.33
2022-08-14T01:14:58.228Z,17.12
2022-08-14T01:15:58.570Z,17.30
2022-08-14T01:16:57.152Z,17.34
2022-08-14T01:17:56.141Z,17.42
2022-08-14T01:19:01.426Z,17.41
2022-08-14T01:19:57.119Z,17.44
2022-08-14T01:20:56.113Z,17.45
2022-08-14T01:21:56.105Z,17.52
2022-08-14T01:22:56.100Z,17.49
2022-08-14T01:23:56.117Z,17.45
2022-08-14T01:24:56.081Z,17.49
2022-08-14T01:25:56.079Z,17.45
2022-08-14T01:26:56.073Z,17.30
2022-08-14T01:27:57.439Z,17.31
2022-08-14T01:28:56.902Z,17.42
2022-08-14T01:30:01.397Z,17.27
2022-08-14T01:30:57.069Z,17.23
2022-08-14T01:31:56.036Z,17.36
2022-08-14T01:32:56.020Z,17.23
2022-08-14T01:33:59.552Z,17.16
2022-08-14T01:35:19.347Z,17.19
2022-08-14T01:36:05.127Z,17.20
2022-08-14T01:36:56.982Z,17.14
2022-08-14T01:38:29.798Z,17.11
2022-08-14T01:38:55.993Z,17.16
2022-08-14T01:39:56.006Z,17.27
2022-08-14T01:40:55.955Z,17.26
2022-08-14T01:41:55.948Z,17.23
2022-08-14T01:42:55.937Z,17.23
2022-08-14T01:43:56.647Z,17.19
2022-08-14T01:44:55.923Z,17.19
2022-08-14T01:46:06.452Z,17.16
2022-08-14T01:47:01.004Z,17.06
2022-08-14T01:48:03.501Z,17.12
2022-08-14T01:48:56.941Z,17.09
2022-08-14T01:49:59.530Z,17.11
2022-08-14T01:50:55.878Z,17.02
2022-08-14T01:51:55.870Z,17.08
2022-08-14T01:52:59.143Z,17.05
2022-08-14T01:53:56.426Z,16.94
2022-08-14T01:54:58.425Z,16.97
2022-08-14T01:55:55.846Z,17.04
2022-08-14T01:56:55.895Z,17.04
2022-08-14T01:58:01.572Z,16.94
2022-08-14T01:58:57.377Z,17.06
2022-08-14T01:59:55.806Z,16.93
2022-08-14T02:00:56.301Z,16.90
2022-08-14T02:01:59.043Z,16.97
2022-08-14T02:02:55.784Z,16.84
2022-08-14T02:03:57.218Z,16.93
2022-08-14T02:04:57.500Z,16.87
2022-08-14T02:05:56.761Z,16.89
2022-08-14T02:06:55.777Z,16.91
2022-08-14T02:08:09.533Z,16.91
2022-08-14T02:08:56.733Z,16.97
2022-08-14T02:09:56.183Z,16.93
2022-08-14T02:10:55.727Z,16.83
2022-08-14T02:11:55.715Z,16.74
2022-08-14T02:12:57.481Z,16.78
2022-08-14T02:13:55.699Z,16.56
2022-08-14T02:15:00.555Z,16.65
2022-08-14T02:15:56.685Z,16.60
2022-08-14T02:16:55.681Z,16.58
2022-08-14T02:17:55.674Z,16.47
2022-08-14T02:18:55.676Z,16.53
2022-08-14T02:19:55.685Z,16.69
2022-08-14T02:20:55.648Z,16.54
2022-08-14T02:21:55.639Z,16.74
2022-08-14T02:22:56.633Z,16.64
2022-08-14T02:23:55.624Z,16.65
2022-08-14T02:24:55.651Z,16.64
2022-08-14T02:25:55.605Z,16.68
2022-08-14T02:28:18.899Z,16.64
2022-08-14T02:28:24.310Z,16.53
2022-08-14T02:28:58.436Z,16.60
2022-08-14T02:29:59.160Z,16.60
2022-08-14T02:30:56.574Z,16.56
2022-08-14T02:31:55.564Z,16.53
2022-08-14T02:32:55.563Z,16.58
2022-08-14T02:33:55.544Z,16.53
2022-08-14T02:34:56.574Z,16.60
2022-08-14T02:36:00.511Z,16.56
2022-08-14T02:37:05.187Z,16.64
2022-08-14T02:37:56.523Z,16.53
2022-08-14T02:38:55.522Z,16.53
2022-08-14T02:39:55.704Z,16.53
2022-08-14T02:40:55.508Z,16.57
2022-08-14T02:41:58.084Z,16.56
2022-08-14T02:42:57.629Z,16.50
2022-08-14T02:44:00.888Z,16.47
2022-08-14T02:44:55.507Z,16.58
2022-08-14T02:45:55.469Z,16.51
2022-08-14T02:46:55.476Z,16.51
2022-08-14T02:47:57.529Z,16.56
2022-08-14T02:49:04.825Z,16.47
2022-08-14T02:49:56.744Z,16.53
2022-08-14T02:50:55.423Z,16.47
2022-08-14T02:51:55.424Z,16.46
2022-08-14T02:52:57.520Z,16.50
2022-08-14T02:53:56.409Z,16.54
2022-08-14T02:54:55.427Z,16.53
2022-08-14T02:55:55.391Z,16.49
2022-08-14T02:57:16.316Z,16.39
2022-08-14T02:58:02.950Z,16.46
2022-08-14T02:58:56.368Z,16.38
2022-08-14T02:59:55.401Z,16.16
2022-08-14T03:00:55.667Z,15.83
2022-08-14T03:01:55.405Z,15.77
2022-08-14T03:02:58.719Z,15.77
2022-08-14T03:03:55.338Z,15.77
2022-08-14T03:04:55.365Z,15.77
2022-08-14T03:05:55.575Z,15.65
2022-08-14T03:06:58.190Z,15.79
2022-08-14T03:07:56.304Z,15.65
2022-08-14T03:08:55.315Z,15.64
2022-08-14T03:10:27.000Z,15.75
2022-08-14T03:10:57.542Z,15.83
2022-08-14T03:11:55.278Z,15.72
2022-08-14T03:12:55.260Z,15.77
2022-08-14T03:13:55.256Z,15.76
2022-08-14T03:14:55.247Z,15.73
2022-08-14T03:15:58.259Z,15.75
2022-08-14T03:16:55.231Z,15.70
2022-08-14T03:17:56.940Z,15.76
2022-08-14T03:18:55.219Z,15.73
2022-08-14T03:19:55.209Z,15.64
2022-08-14T03:20:55.222Z,15.73
2022-08-14T03:21:55.205Z,15.68
2022-08-14T03:22:55.184Z,15.76
2022-08-14T03:23:55.171Z,15.83
2022-08-14T03:24:55.183Z,15.83
2022-08-14T03:25:55.183Z,15.82
2022-08-14T03:26:56.141Z,15.79
2022-08-14T03:27:58.617Z,15.77
2022-08-14T03:28:55.139Z,15.73
2022-08-14T03:29:56.132Z,15.77
2022-08-14T03:30:55.148Z,15.80
2022-08-14T03:31:55.121Z,15.72
2022-08-14T03:32:56.115Z,15.83
2022-08-14T03:33:55.098Z,15.90
2022-08-14T03:34:55.810Z,15.80
2022-08-14T03:35:59.848Z,15.86
2022-08-14T03:37:37.889Z,15.84
2022-08-14T03:39:11.832Z,15.84
2022-08-14T03:39:16.102Z,15.86
2022-08-14T03:39:56.091Z,15.88
2022-08-14T03:40:55.764Z,15.94
2022-08-14T03:41:55.080Z,15.95
2022-08-14T03:42:55.031Z,15.94
2022-08-14T03:43:57.453Z,15.92
2022-08-14T03:45:19.881Z,15.83
2022-08-14T03:45:56.037Z,15.82
2022-08-14T03:46:56.238Z,15.79
2022-08-14T03:48:01.600Z,15.76
2022-08-14T03:48:56.004Z,15.73
2022-08-14T03:49:54.975Z,15.64
2022-08-14T03:50:54.997Z,15.44
2022-08-14T03:51:54.957Z,15.36
2022-08-14T03:52:55.584Z,15.19
2022-08-14T03:53:54.943Z,15.22
2022-08-14T03:54:54.952Z,15.28
2022-08-14T03:55:54.944Z,15.24
2022-08-14T03:56:55.932Z,15.27
2022-08-14T03:57:54.928Z,15.18
2022-08-14T03:58:54.921Z,15.15
2022-08-14T03:59:54.898Z,15.27
2022-08-14T04:00:54.942Z,15.18
2022-08-14T04:02:01.553Z,15.24
2022-08-14T04:02:55.876Z,15.19
2022-08-14T04:03:54.971Z,15.29
2022-08-14T04:04:54.861Z,15.31
2022-08-14T04:05:54.909Z,15.37
2022-08-14T04:06:54.851Z,15.28
2022-08-14T04:08:08.443Z,15.33
2022-08-14T04:08:57.967Z,15.39
2022-08-14T04:09:55.826Z,15.35
2022-08-14T04:10:54.820Z,15.27
2022-08-14T04:11:55.994Z,15.33
2022-08-14T04:12:54.804Z,15.28
2022-08-14T04:13:54.797Z,15.29
2022-08-14T04:14:54.793Z,15.29
2022-08-14T04:16:01.118Z,15.33
2022-08-14T04:16:55.818Z,15.31
2022-08-14T04:17:54.763Z,15.42
2022-08-14T04:18:54.761Z,15.44
2022-08-14T04:19:54.747Z,15.51
2022-08-14T04:20:55.882Z,15.54
2022-08-14T04:22:03.234Z,15.57
2022-08-14T04:22:55.789Z,15.64
2022-08-14T04:23:57.339Z,15.70
2022-08-14T04:24:54.713Z,15.76
2022-08-14T04:25:54.702Z,15.83
2022-08-14T04:26:54.725Z,15.70
2022-08-14T04:28:02.151Z,15.72
2022-08-14T04:29:06.920Z,15.62
2022-08-14T04:29:55.679Z,15.54
2022-08-14T04:30:54.669Z,15.43
2022-08-14T04:33:02.567Z,15.43
2022-08-14T04:33:10.489Z,15.27
2022-08-14T04:33:55.642Z,15.37
2022-08-14T04:34:54.639Z,15.22
2022-08-14T04:35:56.166Z,15.21
2022-08-14T04:36:54.644Z,15.10
2022-08-14T04:37:54.608Z,15.19
2022-08-14T04:38:54.632Z,15.28
2022-08-14T04:39:56.948Z,15.29
2022-08-14T04:40:55.551Z,15.31
2022-08-14T04:41:54.610Z,15.46
2022-08-14T04:42:54.584Z,15.54
2022-08-14T04:43:54.570Z,15.83
2022-08-14T04:44:55.713Z,16.02
2022-08-14T04:45:55.551Z,16.21
2022-08-14T04:46:56.449Z,16.28
2022-08-14T04:47:54.548Z,16.43
2022-08-14T04:48:55.402Z,16.47
2022-08-14T04:49:57.458Z,16.64
2022-08-14T04:50:54.520Z,16.79
2022-08-14T04:51:55.788Z,16.93
2022-08-14T04:52:54.512Z,17.06
2022-08-14T04:53:54.500Z,17.26
2022-08-14T04:54:55.313Z,17.52
2022-08-14T04:55:54.515Z,17.92
2022-08-14T04:56:54.496Z,18.15
2022-08-14T04:57:54.467Z,18.38
2022-08-14T04:58:54.463Z,18.78
2022-08-14T04:59:54.449Z,19.00
2022-08-14T05:00:54.437Z,19.21
2022-08-14T05:01:57.220Z,19.48
2022-08-14T05:02:55.426Z,19.85
2022-08-14T05:03:54.491Z,19.95
2022-08-14T05:04:57.244Z,20.02
2022-08-14T05:05:54.542Z,20.18
2022-08-14T05:06:55.375Z,20.44
2022-08-14T05:08:01.836Z,20.84
2022-08-14T05:08:59.729Z,21.18
2022-08-14T05:09:55.369Z,21.40
2022-08-14T05:10:54.371Z,21.58
2022-08-14T05:11:54.381Z,21.76
2022-08-14T05:13:13.190Z,21.77
2022-08-14T05:14:16.762Z,21.45
2022-08-14T05:14:56.360Z,21.40
2022-08-14T05:15:54.322Z,21.37
2022-08-14T05:16:54.343Z,21.42
2022-08-14T05:18:03.764Z,21.33
2022-08-14T05:19:19.124Z,21.46
2022-08-14T05:21:55.893Z,21.48
2022-08-14T05:21:57.725Z,21.36
2022-08-14T05:22:01.028Z,21.09
2022-08-14T05:22:56.250Z,21.02
2022-08-14T05:23:55.507Z,20.96
2022-08-14T05:24:54.255Z,21.07
2022-08-14T05:25:54.244Z,21.54
2022-08-14T05:26:54.273Z,21.29
2022-08-14T05:27:54.231Z,21.46
2022-08-14T05:28:54.237Z,21.22
2022-08-14T05:29:55.479Z,20.90
2022-08-14T05:30:54.206Z,20.96
2022-08-14T05:31:57.342Z,20.96
2022-08-14T05:32:54.190Z,20.93
2022-08-14T05:33:56.502Z,21.24
2022-08-14T05:34:54.179Z,21.69
2022-08-14T05:35:54.194Z,22.26
2022-08-14T05:37:01.900Z,22.70
2022-08-14T05:37:55.155Z,22.72
2022-08-14T05:38:54.178Z,23.08
2022-08-14T05:39:54.286Z,23.43
2022-08-14T05:40:54.145Z,23.71
2022-08-14T05:41:54.433Z,23.46
2022-08-14T05:42:55.116Z,23.54
2022-08-14T05:43:54.106Z,23.28
2022-08-14T05:44:54.141Z,22.99
2022-08-14T05:45:54.097Z,22.98
2022-08-14T05:46:54.117Z,23.34
2022-08-14T05:47:54.081Z,23.65
2022-08-14T05:48:54.070Z,23.80
2022-08-14T05:49:54.063Z,23.54
2022-08-14T05:50:54.050Z,23.37
2022-08-14T05:51:54.078Z,23.31
2022-08-14T05:52:54.336Z,22.83
2022-08-14T05:54:01.788Z,22.55
2022-08-14T05:54:55.021Z,22.65
2022-08-14T05:55:54.019Z,22.38
2022-08-14T05:56:54.045Z,22.28
2022-08-14T05:57:54.033Z,21.89
2022-08-14T05:58:54.029Z,21.69
2022-08-14T05:59:53.995Z,21.77
2022-08-14T06:00:53.995Z,21.36
2022-08-14T06:01:54.032Z,21.09
2022-08-14T06:02:53.974Z,20.88
2022-08-14T06:03:54.707Z,20.78
2022-08-14T06:04:53.967Z,20.58
2022-08-14T06:05:53.945Z,20.67
2022-08-14T06:06:53.975Z,20.65
2022-08-14T06:07:53.933Z,20.66
2022-08-14T06:08:53.924Z,20.66
2022-08-14T06:09:53.913Z,20.77
2022-08-14T06:10:53.909Z,20.77
2022-08-14T06:11:53.940Z,20.97
2022-08-14T06:12:56.532Z,21.18
2022-08-14T06:13:53.885Z,21.39
2022-08-14T06:14:53.877Z,21.45
2022-08-14T06:15:53.873Z,21.57
2022-08-14T06:16:53.905Z,21.52
2022-08-14T06:17:56.643Z,21.89
2022-08-14T06:18:54.848Z,22.00
2022-08-14T06:19:53.841Z,22.17
2022-08-14T06:20:53.828Z,22.36
2022-08-14T06:21:59.164Z,22.15
2022-08-14T06:22:56.294Z,22.13
2022-08-14T06:23:53.813Z,22.20
2022-08-14T06:24:53.803Z,22.04
2022-08-14T06:25:53.797Z,21.62
2022-08-14T06:26:56.680Z,21.24
2022-08-14T06:27:54.777Z,20.85
2022-08-14T06:28:53.787Z,20.41
2022-08-14T06:29:53.771Z,20.69
2022-08-14T06:30:53.762Z,20.92
2022-08-14T06:32:00.022Z,21.24
2022-08-14T06:32:54.980Z,21.21
2022-08-14T06:35:02.244Z,21.39
2022-08-14T06:35:09.653Z,21.32
2022-08-14T06:35:54.711Z,21.50
2022-08-14T06:36:54.760Z,21.22
2022-08-14T06:37:53.706Z,20.90
2022-08-14T06:38:53.701Z,20.65
2022-08-14T06:39:53.775Z,20.40
2022-08-14T06:40:53.680Z,20.55
2022-08-14T06:41:59.466Z,20.81
2022-08-14T06:42:54.727Z,20.97
2022-08-14T06:43:53.664Z,21.09
2022-08-14T06:44:53.651Z,21.09
2022-08-14T06:45:54.511Z,21.22
2022-08-14T06:46:53.669Z,21.24
2022-08-14T06:47:53.628Z,21.45
2022-08-14T06:48:53.625Z,21.69
2022-08-14T06:49:57.749Z,21.22
2022-08-14T06:50:53.604Z,21.22
2022-08-14T06:51:54.623Z,21.36
2022-08-14T06:52:53.595Z,21.29
2022-08-14T06:53:53.594Z,21.42
2022-08-14T06:54:53.578Z,21.52
2022-08-14T06:56:00.762Z,21.69
2022-08-14T06:56:54.599Z,21.79
2022-08-14T06:57:53.562Z,21.40
2022-08-14T06:58:53.559Z,20.82
2022-08-14T06:59:53.544Z,21.22
2022-08-14T07:00:53.625Z,21.51
2022-08-14T07:01:56.779Z,21.55
2022-08-14T07:02:53.524Z,21.89
2022-08-14T07:03:53.519Z,21.80
2022-08-14T07:04:53.512Z,21.79
2022-08-14T07:05:55.866Z,21.61
2022-08-14T07:06:55.584Z,21.72
2022-08-14T07:07:54.488Z,21.39
2022-08-14T07:08:53.490Z,21.51
2022-08-14T07:09:53.467Z,21.69
2022-08-14T07:10:53.458Z,21.80
2022-08-14T07:11:53.501Z,22.06
2022-08-14T07:13:01.844Z,21.96
2022-08-14T07:13:54.461Z,22.06
2022-08-14T07:14:56.965Z,22.04
2022-08-14T07:15:55.496Z,22.11
2022-08-14T07:16:53.447Z,22.29
2022-08-14T07:17:54.055Z,22.47
2022-08-14T07:18:53.407Z,22.84
2022-08-14T07:19:53.397Z,22.85
2022-08-14T07:20:53.390Z,22.94
2022-08-14T07:21:53.404Z,22.85
2022-08-14T07:22:57.135Z,22.66
2022-08-14T07:23:53.363Z,22.93
2022-08-14T07:24:53.361Z,22.73
2022-08-14T07:25:53.348Z,23.10
2022-08-14T07:26:53.409Z,23.28
2022-08-14T07:27:53.338Z,23.40
2022-08-14T07:28:53.325Z,23.15
2022-08-14T07:29:53.315Z,22.75
2022-08-14T07:30:53.313Z,22.51
2022-08-14T07:31:53.326Z,22.81
2022-08-14T07:32:53.295Z,22.53
2022-08-14T07:33:53.285Z,22.54
2022-08-14T07:34:53.276Z,22.50
2022-08-14T07:35:58.718Z,22.69
2022-08-14T07:37:00.670Z,22.87
2022-08-14T07:37:54.255Z,22.60
2022-08-14T07:39:27.519Z,22.57
2022-08-14T07:39:53.329Z,22.84
2022-08-14T07:40:53.292Z,23.39
2022-08-14T07:41:53.252Z,23.31
2022-08-14T07:42:53.238Z,23.34
2022-08-14T07:43:55.818Z,23.41
2022-08-14T07:44:53.206Z,23.28
2022-08-14T07:45:53.813Z,23.59
2022-08-14T07:46:53.217Z,23.83
2022-08-14T07:47:53.181Z,23.58
2022-08-14T07:48:53.254Z,23.40
2022-08-14T07:49:55.564Z,23.54
2022-08-14T07:50:55.311Z,23.48
2022-08-14T07:51:54.182Z,23.68
2022-08-14T07:52:53.145Z,23.84
2022-08-14T07:53:57.223Z,23.93
2022-08-14T07:54:53.129Z,23.86
2022-08-14T07:56:00.353Z,23.87
2022-08-14T07:56:56.699Z,23.63
2022-08-14T07:57:54.101Z,23.55
2022-08-14T07:58:54.098Z,23.69
2022-08-14T07:59:53.091Z,23.54
2022-08-14T08:00:53.094Z,23.86
2022-08-14T08:01:53.104Z,24.06
2022-08-14T08:02:55.989Z,23.92
2022-08-14T08:03:59.356Z,23.93
2022-08-14T08:04:54.966Z,23.92
2022-08-14T08:05:54.042Z,24.06
2022-08-14T08:06:53.084Z,24.11
2022-08-14T08:07:53.040Z,24.43
2022-08-14T08:09:01.485Z,24.50
2022-08-14T08:09:54.022Z,24.42
2022-08-14T08:11:02.753Z,24.53
2022-08-14T08:11:54.533Z,24.68
2022-08-14T08:12:52.993Z,24.93
2022-08-14T08:13:54.434Z,24.95
2022-08-14T08:14:56.305Z,24.88
2022-08-14T08:15:53.969Z,24.86
2022-08-14T08:16:53.498Z,25.16
2022-08-14T08:17:53.868Z,25.59
2022-08-14T08:18:58.688Z,25.38
2022-08-14T08:19:54.944Z,25.60
2022-08-14T08:20:53.534Z,25.81
2022-08-14T08:21:52.935Z,25.85
2022-08-14T08:22:56.042Z,25.93
2022-08-14T08:23:52.920Z,25.68
2022-08-14T08:24:52.914Z,25.63
2022-08-14T08:25:52.904Z,25.32
2022-08-14T08:26:52.898Z,25.26
2022-08-14T08:27:52.913Z,25.41
2022-08-14T08:28:52.885Z,25.31
2022-08-14T08:29:52.875Z,24.81
2022-08-14T08:30:52.885Z,24.76
2022-08-14T08:31:52.859Z,24.78
2022-08-14T08:32:52.892Z,25.41
2022-08-14T08:33:52.850Z,25.78
2022-08-14T08:34:52.838Z,26.10
2022-08-14T08:35:52.838Z,26.40
2022-08-14T08:36:52.835Z,26.75
2022-08-14T08:38:01.065Z,26.93
2022-08-14T08:39:17.145Z,27.27
2022-08-14T08:40:01.649Z,27.12
2022-08-14T08:40:53.843Z,27.18
2022-08-14T08:41:54.081Z,27.51
2022-08-14T08:42:53.100Z,27.02
2022-08-14T08:43:52.775Z,26.65
2022-08-14T08:44:52.772Z,26.56
2022-08-14T08:45:52.753Z,26.95
2022-08-14T08:46:53.746Z,27.05
2022-08-14T08:47:52.773Z,26.78
2022-08-14T08:48:53.637Z,26.62
2022-08-14T08:49:59.621Z,26.55
2022-08-14T08:50:53.712Z,26.43
2022-08-14T08:51:52.717Z,26.28
2022-08-14T08:52:52.738Z,26.53
2022-08-14T08:53:52.699Z,26.55
2022-08-14T08:54:52.691Z,26.43
2022-08-14T08:55:52.685Z,26.47
2022-08-14T08:56:52.683Z,26.73
2022-08-14T08:57:52.701Z,26.95
2022-08-14T08:58:52.675Z,26.97
2022-08-14T08:59:55.357Z,27.11
2022-08-14T09:00:54.354Z,27.20
2022-08-14T09:01:56.387Z,26.89
2022-08-14T09:02:52.689Z,26.97
2022-08-14T09:03:52.646Z,26.63
2022-08-14T09:04:53.422Z,26.48
2022-08-14T09:05:54.055Z,26.81
2022-08-14T09:07:09.362Z,26.95
2022-08-14T09:07:56.411Z,27.03
2022-08-14T09:08:52.591Z,26.77
2022-08-14T09:09:53.531Z,27.20
2022-08-14T09:10:56.334Z,27.32
2022-08-14T09:11:53.572Z,27.51
2022-08-14T09:12:52.553Z,27.54
2022-08-14T09:13:52.595Z,26.93
2022-08-14T09:14:52.553Z,26.36
2022-08-14T09:15:52.531Z,26.31
2022-08-14T09:16:52.528Z,26.56
2022-08-14T09:17:52.523Z,26.66
2022-08-14T09:18:53.526Z,26.52
2022-08-14T09:19:52.501Z,26.81
2022-08-14T09:20:52.498Z,27.25
2022-08-14T09:21:55.022Z,27.73
2022-08-14T09:22:52.842Z,27.70
2022-08-14T09:24:29.654Z,27.78
2022-08-14T09:24:53.471Z,27.89
2022-08-14T09:25:59.772Z,27.90
2022-08-14T09:26:53.452Z,27.87
2022-08-14T09:27:52.445Z,28.04
2022-08-14T09:28:52.525Z,27.77
2022-08-14T09:29:54.417Z,27.87
2022-08-14T09:30:52.425Z,28.25
2022-08-14T09:31:53.200Z,28.25
2022-08-14T09:33:08.494Z,28.14
2022-08-14T09:33:55.901Z,28.51
2022-08-14T09:34:58.823Z,28.29
2022-08-14T09:35:55.036Z,28.04
2022-08-14T09:36:52.388Z,27.71
2022-08-14T09:37:52.376Z,27.07
2022-08-14T09:38:52.438Z,27.32
2022-08-14T09:39:52.374Z,27.67
2022-08-14T09:40:52.345Z,27.74
2022-08-14T09:42:21.253Z,28.04
2022-08-14T09:42:53.626Z,27.89
2022-08-14T09:43:52.347Z,27.30
2022-08-14T09:44:52.324Z,27.02
2022-08-14T09:45:53.428Z,27.10
2022-08-14T09:46:52.300Z,27.39
2022-08-14T09:47:52.458Z,27.82
2022-08-14T09:48:52.312Z,28.05
2022-08-14T09:49:53.506Z,28.01
2022-08-14T09:50:52.281Z,27.64
2022-08-14T09:51:58.401Z,27.29
2022-08-14T09:52:54.890Z,27.30
2022-08-14T09:54:19.094Z,27.17
2022-08-14T09:54:53.233Z,26.95
2022-08-14T09:55:52.225Z,26.90
2022-08-14T09:56:57.055Z,26.96
2022-08-14T09:57:53.218Z,27.11
2022-08-14T09:58:52.230Z,27.47
2022-08-14T09:59:53.202Z,27.68
2022-08-14T10:00:52.806Z,27.77
2022-08-14T10:01:53.440Z,27.80
2022-08-14T10:02:52.245Z,27.65
2022-08-14T10:03:53.581Z,27.67
2022-08-14T10:04:52.211Z,27.74
2022-08-14T10:05:52.192Z,27.85
2022-08-14T10:06:52.160Z,27.64
2022-08-14T10:07:53.982Z,27.85
2022-08-14T10:08:53.170Z,27.98
2022-08-14T10:10:00.247Z,28.08
2022-08-14T10:11:01.549Z,28.17
2022-08-14T10:11:59.099Z,28.29
2022-08-14T10:12:55.022Z,28.67
2022-08-14T10:13:53.644Z,28.91
2022-08-14T10:14:53.291Z,29.14
2022-08-14T10:15:52.093Z,29.24
2022-08-14T10:16:52.108Z,29.10
2022-08-14T10:17:53.234Z,29.19
2022-08-14T10:18:52.098Z,29.13
2022-08-14T10:19:52.062Z,29.13
2022-08-14T10:20:52.053Z,29.38
2022-08-14T10:23:10.916Z,29.50
2022-08-14T10:23:11.910Z,29.61
2022-08-14T10:23:53.132Z,28.98
2022-08-14T10:24:52.024Z,29.10
2022-08-14T10:25:52.933Z,29.54
2022-08-14T10:26:52.010Z,29.61
2022-08-14T10:27:56.973Z,29.42
2022-08-14T10:29:18.906Z,29.20
2022-08-14T10:29:52.989Z,29.10
2022-08-14T10:30:51.983Z,29.16
2022-08-14T10:31:51.974Z,29.26
2022-08-14T10:32:52.480Z,29.51
2022-08-14T10:33:51.948Z,29.47
2022-08-14T10:34:53.138Z,29.50
2022-08-14T10:35:51.939Z,29.47
2022-08-14T10:37:02.386Z,29.16
2022-08-14T10:37:52.933Z,29.12
2022-08-14T10:38:52.052Z,29.13
2022-08-14T10:40:05.880Z,29.10
2022-08-14T10:40:52.905Z,29.02
2022-08-14T10:41:54.118Z,28.94
2022-08-14T10:42:51.891Z,28.85
2022-08-14T10:43:51.882Z,28.75
2022-08-14T10:44:52.660Z,28.69
2022-08-14T10:45:52.034Z,29.01
2022-08-14T10:47:40.110Z,29.36
2022-08-14T10:48:08.560Z,29.65
2022-08-14T10:48:52.844Z,30.12
2022-08-14T10:49:53.302Z,30.39
2022-08-14T10:50:51.828Z,30.59
2022-08-14T10:51:51.820Z,30.59
2022-08-14T10:52:51.825Z,29.97
2022-08-14T10:53:55.740Z,29.79
2022-08-14T10:54:56.307Z,30.13
2022-08-14T10:55:51.791Z,30.39
2022-08-14T10:56:51.789Z,30.21
2022-08-14T10:57:51.777Z,30.23
2022-08-14T10:58:51.775Z,29.73
2022-08-14T10:59:51.783Z,29.60
2022-08-14T11:00:51.753Z,29.63
2022-08-14T11:01:51.744Z,29.59
2022-08-14T11:02:54.786Z,29.41
2022-08-14T11:03:55.685Z,29.41
2022-08-14T11:04:52.809Z,29.47
2022-08-14T11:05:54.966Z,29.34
2022-08-14T11:06:51.718Z,29.12
2022-08-14T11:07:52.303Z,28.88
2022-08-14T11:08:51.696Z,28.57
2022-08-14T11:09:51.715Z,28.74
2022-08-14T11:10:52.861Z,28.84
2022-08-14T11:11:55.039Z,29.07
2022-08-14T11:12:51.663Z,28.89
2022-08-14T11:13:51.667Z,29.17
2022-08-14T11:14:59.244Z,29.35
2022-08-14T11:15:52.801Z,29.38
2022-08-14T11:16:53.590Z,29.50
2022-08-14T11:17:51.632Z,29.59
2022-08-14T11:18:51.624Z,29.87
2022-08-14T11:19:53.979Z,30.13
2022-08-14T11:20:51.611Z,30.30
2022-08-14T11:21:51.611Z,30.31
2022-08-14T11:22:55.812Z,30.28
2022-08-14T11:23:53.390Z,30.37
2022-08-14T11:24:55.831Z,30.92
2022-08-14T11:25:53.154Z,31.33
2022-08-14T11:26:51.563Z,31.74
2022-08-14T11:27:51.558Z,31.90
2022-08-14T11:28:51.547Z,31.49
2022-08-14T11:29:52.562Z,31.36
2022-08-14T11:30:54.276Z,31.43
2022-08-14T11:31:52.525Z,31.25
2022-08-14T11:32:51.522Z,31.00
2022-08-14T11:33:51.514Z,31.40
2022-08-14T11:34:51.532Z,31.69
2022-08-14T11:35:51.502Z,32.08
2022-08-14T11:37:09.787Z,32.03
2022-08-14T11:37:52.483Z,31.74
2022-08-14T11:38:51.567Z,31.52
2022-08-14T11:39:51.525Z,31.33
2022-08-14T11:40:52.595Z,31.54
2022-08-14T11:41:55.828Z,31.55
2022-08-14T11:42:57.143Z,31.76
2022-08-14T11:43:57.834Z,31.70
2022-08-14T11:44:53.765Z,31.84
2022-08-14T11:45:52.120Z,31.77
2022-08-14T11:46:51.412Z,31.73
2022-08-14T11:48:12.722Z,31.71
2022-08-14T11:49:03.808Z,31.39
2022-08-14T11:49:52.421Z,31.27
2022-08-14T11:50:51.384Z,31.20
2022-08-14T11:51:53.853Z,31.17
2022-08-14T11:52:51.370Z,31.09
2022-08-14T11:53:51.368Z,30.96
2022-08-14T11:54:51.381Z,30.85
2022-08-14T11:55:51.354Z,30.53
2022-08-14T11:56:51.345Z,30.30
2022-08-14T11:57:59.451Z,30.09
2022-08-14T11:58:52.330Z,30.15
2022-08-14T11:59:51.345Z,30.18
2022-08-14T12:00:52.589Z,30.15
2022-08-14T12:01:51.314Z,30.19
2022-08-14T12:03:03.212Z,30.23
2022-08-14T12:03:57.158Z,30.10
2022-08-14T12:04:52.364Z,30.02
2022-08-14T12:05:51.281Z,29.82
2022-08-14T12:06:51.628Z,29.72
2022-08-14T12:07:51.263Z,29.76
2022-08-14T12:08:52.887Z,29.65
2022-08-14T12:09:52.836Z,29.82
2022-08-14T12:10:51.256Z,29.81
2022-08-14T12:11:51.590Z,29.86
2022-08-14T12:12:51.427Z,30.06
2022-08-14T12:13:55.851Z,30.25
2022-08-14T12:14:52.232Z,30.54
2022-08-14T12:15:51.457Z,30.65
2022-08-14T12:16:51.191Z,30.73
2022-08-14T12:17:51.192Z,31.02
2022-08-14T12:18:51.179Z,31.33
2022-08-14T12:19:54.365Z,31.49
2022-08-14T12:20:53.296Z,31.87
2022-08-14T12:21:52.158Z,31.74
2022-08-14T12:22:52.512Z,31.39
2022-08-14T12:23:51.150Z,31.05
2022-08-14T12:24:51.183Z,30.65
2022-08-14T12:26:01.538Z,30.44
2022-08-14T12:26:52.136Z,30.32
2022-08-14T12:27:53.304Z,30.34
2022-08-14T12:29:00.430Z,30.21
2022-08-14T12:29:52.133Z,30.19
2022-08-14T12:30:53.696Z,30.24
2022-08-14T12:31:52.095Z,30.19
2022-08-14T12:32:51.093Z,30.19
2022-08-14T12:33:53.685Z,30.06
2022-08-14T12:34:51.167Z,30.15
2022-08-14T12:35:51.091Z,30.13
2022-08-14T12:36:52.066Z,30.28
2022-08-14T12:37:51.103Z,30.34
2022-08-14T12:38:51.059Z,30.37
2022-08-14T12:39:51.068Z,30.40
2022-08-14T12:40:52.062Z,30.35
2022-08-14T12:41:51.032Z,30.53
2022-08-14T12:42:53.872Z,30.53
2022-08-14T12:43:51.015Z,30.66
2022-08-14T12:44:51.018Z,30.72
2022-08-14T12:45:51.033Z,30.73
2022-08-14T12:46:51.005Z,30.72
2022-08-14T12:47:51.545Z,30.55
2022-08-14T12:48:50.977Z,30.34
2022-08-14T12:49:50.983Z,30.31
2022-08-14T12:50:50.995Z,30.32
2022-08-14T12:51:50.958Z,30.40
2022-08-14T12:53:02.254Z,30.68